createdAt,value
2018-01-08T00:00:57.645Z,5.10
2018-01-08T00:03:25.908Z,5.90
2018-01-08T00:05:54.655Z,5.17
2018-01-08T00:08:22.888Z,5.87
2018-01-08T00:10:51.134Z,5.50
2018-01-08T00:13:20.162Z,5.90
2018-01-08T00:15:48.422Z,5.13
2018-01-08T00:18:16.735Z,6.40
2018-01-08T00:20:45.012Z,6.20
2018-01-08T00:23:14.215Z,4.80
2018-01-08T00:25:42.477Z,5.33
2018-01-08T00:28:10.732Z,6.00
2018-01-08T00:30:39.020Z,5.40
2018-01-08T00:33:07.318Z,6.53
2018-01-08T00:35:35.577Z,5.57
2018-01-08T00:38:03.857Z,6.03
2018-01-08T00:40:32.097Z,5.93
2018-01-08T00:43:01.153Z,5.57
2018-01-08T00:45:29.393Z,5.03
2018-01-08T00:47:57.679Z,5.47
2018-01-08T00:50:25.981Z,5.53
2018-01-08T00:52:54.289Z,4.93
2018-01-08T00:55:22.568Z,5.77
2018-01-08T00:57:51.632Z,5.90
2018-01-08T01:00:20.057Z,6.47
2018-01-08T01:02:49.124Z,5.90
2018-01-08T01:05:17.352Z,5.23
2018-01-08T01:07:45.667Z,5.57
2018-01-08T01:10:13.977Z,5.80
2018-01-08T01:12:42.253Z,5.27
2018-01-08T01:15:11.319Z,6.17
2018-01-08T01:17:39.549Z,5.90
2018-01-08T01:20:07.833Z,5.73
2018-01-08T01:22:36.111Z,5.87
2018-01-08T01:25:04.415Z,5.90
2018-01-08T01:27:32.655Z,5.83
2018-01-08T01:30:00.954Z,6.20
2018-01-08T01:32:29.256Z,5.87
2018-01-08T01:34:57.791Z,6.00
2018-01-08T01:37:26.804Z,6.73
2018-01-08T01:39:55.107Z,5.80
2018-01-08T01:42:23.337Z,6.27
2018-01-08T01:44:51.690Z,5.43
2018-01-08T01:47:19.918Z,5.80
2018-01-08T01:49:48.199Z,6.83
2018-01-08T01:52:16.465Z,6.07
2018-01-08T01:54:44.756Z,6.10
2018-01-08T01:57:13.056Z,5.27
2018-01-08T01:59:41.292Z,6.07
2018-01-08T02:02:09.580Z,7.73
2018-01-08T02:04:37.867Z,6.07
2018-01-08T02:07:06.119Z,6.50
2018-01-08T02:09:34.399Z,6.70
2018-01-08T02:12:02.650Z,6.07
2018-01-08T02:14:31.660Z,6.73
2018-01-08T02:16:59.930Z,6.57
2018-01-08T02:19:28.982Z,5.17
2018-01-08T02:21:57.307Z,5.77
2018-01-08T02:24:25.601Z,6.27
2018-01-08T02:26:53.875Z,6.17
2018-01-08T02:29:22.175Z,5.80
2018-01-08T02:31:50.455Z,5.30
2018-01-08T02:34:18.756Z,6.47
2018-01-08T02:36:47.032Z,5.50
2018-01-08T02:39:15.342Z,5.73
2018-01-08T02:41:44.348Z,6.33
2018-01-08T02:44:12.592Z,6.03
2018-01-08T02:46:41.641Z,5.20
2018-01-08T02:49:09.921Z,5.87
2018-01-08T02:51:38.222Z,5.53
2018-01-08T02:54:06.461Z,5.83
2018-01-08T02:56:34.716Z,5.23
2018-01-08T02:59:03.010Z,5.40
2018-01-08T03:01:31.320Z,5.57
2018-01-08T03:03:59.597Z,5.43
2018-01-08T03:06:27.829Z,5.20
2018-01-08T03:08:56.135Z,5.43
2018-01-08T03:11:24.373Z,5.63
2018-01-08T03:13:53.420Z,5.90
2018-01-08T03:16:21.701Z,5.23
2018-01-08T03:18:49.944Z,5.10
2018-01-08T03:21:18.248Z,5.03
2018-01-08T03:23:46.538Z,5.87
2018-01-08T03:26:14.839Z,5.77
2018-01-08T03:28:43.116Z,5.63
2018-01-08T03:31:11.390Z,5.13
2018-01-08T03:33:39.688Z,4.77
2018-01-08T03:36:08.697Z,6.03
2018-01-08T03:38:36.972Z,5.20
2018-01-08T03:41:05.268Z,5.50
2018-01-08T03:43:33.539Z,5.50
2018-01-08T03:46:01.834Z,4.87
2018-01-08T03:48:30.107Z,5.03
2018-01-08T03:50:58.357Z,5.63
2018-01-08T03:53:26.601Z,5.07
2018-01-08T03:55:55.785Z,5.20
2018-01-08T03:58:24.012Z,4.37
2018-01-08T04:00:52.245Z,4.83
2018-01-08T04:03:20.550Z,5.20
2018-01-08T04:05:49.592Z,5.70
2018-01-08T04:08:17.865Z,4.73
2018-01-08T04:10:46.098Z,5.17
2018-01-08T04:13:15.098Z,5.37
2018-01-08T04:15:43.394Z,4.63
2018-01-08T04:18:11.633Z,5.40
2018-01-08T04:20:40.697Z,4.70
2018-01-08T04:23:08.976Z,5.60
2018-01-08T04:25:39.005Z,5.53
2018-01-08T04:28:07.282Z,6.33
2018-01-08T04:30:35.518Z,5.07
2018-01-08T04:33:03.820Z,6.80
2018-01-08T04:35:32.060Z,5.57
2018-01-08T04:38:00.350Z,6.57
2018-01-08T04:40:28.630Z,6.97
2018-01-08T04:42:56.861Z,5.30
2018-01-08T04:45:25.874Z,4.83
2018-01-08T04:47:54.873Z,4.37
2018-01-08T04:50:23.164Z,4.80
2018-01-08T04:52:51.435Z,3.90
2018-01-08T04:55:19.747Z,4.30
2018-01-08T04:57:48.023Z,4.50
2018-01-08T05:00:16.266Z,4.30
2018-01-08T05:02:44.528Z,4.87
2018-01-08T05:05:13.590Z,4.10
2018-01-08T05:07:41.837Z,4.27
2018-01-08T05:10:10.081Z,3.87
2018-01-08T05:12:39.168Z,4.47
2018-01-08T05:15:08.211Z,5.13
2018-01-08T05:17:36.489Z,4.63
2018-01-08T05:20:04.779Z,5.33
2018-01-08T05:22:33.008Z,6.07
2018-01-08T05:25:01.317Z,6.00
2018-01-08T05:27:29.583Z,4.70
2018-01-08T05:29:57.857Z,6.93
2018-01-08T05:32:26.083Z,4.73
2018-01-08T05:34:55.131Z,4.47
2018-01-08T05:37:23.401Z,4.20
2018-01-08T05:39:51.711Z,4.47
2018-01-08T05:42:19.982Z,4.40
2018-01-08T05:44:48.259Z,3.97
2018-01-08T05:47:16.545Z,4.17
2018-01-08T05:49:44.852Z,4.70
2018-01-08T05:52:13.120Z,4.53
2018-01-08T05:54:41.371Z,4.37
2018-01-08T05:57:09.611Z,4.03
2018-01-08T05:59:37.891Z,4.43
2018-01-08T06:02:06.136Z,3.07
2018-01-08T06:04:35.184Z,3.60
2018-01-08T06:07:03.473Z,5.43
2018-01-08T06:09:31.708Z,4.30
2018-01-08T06:11:59.973Z,4.00
2018-01-08T06:14:28.973Z,4.43
2018-01-08T06:16:58.005Z,3.47
2018-01-08T06:19:26.244Z,4.27
2018-01-08T06:21:54.563Z,3.80
2018-01-08T06:24:22.800Z,4.10
2018-01-08T06:26:51.091Z,4.20
2018-01-08T06:29:19.341Z,4.07
2018-01-08T06:31:48.342Z,4.60
2018-01-08T06:34:16.644Z,4.20
2018-01-08T06:36:44.894Z,4.40
2018-01-08T06:39:13.930Z,4.27
2018-01-08T06:41:42.165Z,4.03
2018-01-08T06:44:11.183Z,3.90
2018-01-08T06:46:39.449Z,3.90
2018-01-08T06:49:08.288Z,3.87
2018-01-08T06:51:36.585Z,3.73
2018-01-08T06:54:04.867Z,4.40
2018-01-08T06:56:33.184Z,4.33
2018-01-08T06:59:01.465Z,4.30
2018-01-08T07:01:29.715Z,3.53
2018-01-08T07:03:59.044Z,4.73
2018-01-08T07:06:27.343Z,3.83
2018-01-08T07:08:55.640Z,4.27
2018-01-08T07:11:23.916Z,4.67
2018-01-08T07:13:52.190Z,3.60
2018-01-08T07:16:20.433Z,4.03
2018-01-08T07:18:48.688Z,4.23
2018-01-08T07:21:16.997Z,4.23
2018-01-08T07:23:45.278Z,5.13
2018-01-08T07:26:13.594Z,4.97
2018-01-08T07:28:41.874Z,3.87
2018-01-08T07:31:10.153Z,4.97
2018-01-08T07:33:38.442Z,4.57
2018-01-08T07:36:07.492Z,4.73
2018-01-08T07:38:35.776Z,4.73
2018-01-08T07:41:04.054Z,3.60
2018-01-08T07:43:32.292Z,4.93
2018-01-08T07:46:00.596Z,4.37
2018-01-08T07:48:28.867Z,4.63
2018-01-08T07:50:57.159Z,4.53
2018-01-08T07:53:25.446Z,5.63
2018-01-08T07:55:53.676Z,4.87
2018-01-08T07:58:21.987Z,5.67
2018-01-08T08:00:50.267Z,5.03
2018-01-08T08:03:18.522Z,4.57
2018-01-08T08:05:46.818Z,5.27
2018-01-08T08:08:15.047Z,5.27
2018-01-08T08:10:43.343Z,4.50
2018-01-08T08:13:11.674Z,5.10
2018-01-08T08:15:39.931Z,4.30
2018-01-08T08:18:08.206Z,4.47
2018-01-08T08:20:36.508Z,4.33
2018-01-08T08:23:05.538Z,4.70
2018-01-08T08:25:33.819Z,6.33
2018-01-08T08:28:02.118Z,6.20
2018-01-08T08:30:30.352Z,5.50
2018-01-08T08:32:58.656Z,5.83
2018-01-08T08:35:26.885Z,4.83
2018-01-08T08:37:55.196Z,5.17
2018-01-08T08:40:23.427Z,4.60
2018-01-08T08:42:51.651Z,4.33
2018-01-08T08:45:19.959Z,4.60
2018-01-08T08:47:48.192Z,4.87
2018-01-08T08:50:16.495Z,4.90
2018-01-08T08:52:44.753Z,4.70
2018-01-08T08:55:13.069Z,4.77
2018-01-08T08:57:41.346Z,5.20
2018-01-08T09:00:09.577Z,4.13
2018-01-08T09:02:37.874Z,4.43
2018-01-08T09:05:06.134Z,4.73
2018-01-08T09:07:35.207Z,5.30
2018-01-08T09:10:03.482Z,4.60
2018-01-08T09:12:31.756Z,4.43
2018-01-08T09:15:00.027Z,4.40
2018-01-08T09:17:28.275Z,4.63
2018-01-08T09:19:57.312Z,4.73
2018-01-08T09:22:26.352Z,4.13
2018-01-08T09:24:54.628Z,4.47
2018-01-08T09:27:22.912Z,4.33
2018-01-08T09:29:51.162Z,4.30
2018-01-08T09:32:19.439Z,4.00
2018-01-08T09:34:47.721Z,4.40
2018-01-08T09:37:16.053Z,4.03
2018-01-08T09:39:44.306Z,4.73
2018-01-08T09:42:12.530Z,4.43
2018-01-08T09:44:41.583Z,4.00
2018-01-08T09:47:09.874Z,4.40
2018-01-08T09:49:38.105Z,3.87
2018-01-08T09:52:06.352Z,4.50
2018-01-08T09:54:35.345Z,4.33
2018-01-08T09:57:04.421Z,4.47
2018-01-08T09:59:32.644Z,3.93
2018-01-08T10:02:00.922Z,4.17
2018-01-08T10:04:41.166Z,4.43
2018-01-08T10:07:21.332Z,4.03
2018-01-08T10:10:01.453Z,4.30
2018-01-08T10:12:41.503Z,3.53
2018-01-08T10:15:21.564Z,4.37
2018-01-08T10:18:02.551Z,3.60
2018-01-08T10:20:31.600Z,3.93
2018-01-08T10:22:59.871Z,4.53
2018-01-08T10:25:28.134Z,4.30
2018-01-08T10:27:56.368Z,4.17
2018-01-08T10:30:25.444Z,3.67
2018-01-08T10:32:53.721Z,4.30
2018-01-08T10:35:22.017Z,3.87
2018-01-08T10:37:50.301Z,3.60
2018-01-08T10:40:19.428Z,3.73
2018-01-08T10:42:53.919Z,4.30
2018-01-08T10:45:28.621Z,4.27
2018-01-08T10:48:02.717Z,4.23
2018-01-08T10:50:36.860Z,3.83
2018-01-08T10:53:09.646Z,3.57
2018-01-08T10:55:37.947Z,4.03
2018-01-08T10:58:06.228Z,4.20
2018-01-08T11:00:34.514Z,3.77
2018-01-08T11:03:08.388Z,4.47
2018-01-08T11:05:37.403Z,4.83
2018-01-08T11:08:05.671Z,4.30
2018-01-08T11:10:34.678Z,4.07
2018-01-08T11:13:02.985Z,4.37
2018-01-08T11:15:31.289Z,4.30
2018-01-08T11:17:59.506Z,3.70
2018-01-08T11:20:27.759Z,3.13
2018-01-08T11:22:56.033Z,4.07
2018-01-08T11:25:24.315Z,4.00
2018-01-08T11:27:52.609Z,4.03
2018-01-08T11:30:21.689Z,3.83
2018-01-08T11:32:49.924Z,3.73
2018-01-08T11:35:18.160Z,3.53
2018-01-08T11:37:46.419Z,3.87
2018-01-08T11:40:14.652Z,3.87
2018-01-08T11:42:42.904Z,3.83
2018-01-08T11:45:11.744Z,3.60
2018-01-08T11:47:40.060Z,3.77
2018-01-08T11:50:09.122Z,4.00
2018-01-08T11:52:37.377Z,4.30
2018-01-08T11:55:05.673Z,3.10
2018-01-08T11:57:33.903Z,3.90
2018-01-08T12:00:02.193Z,3.33
2018-01-08T12:02:30.467Z,4.10
2018-01-08T12:04:58.771Z,3.30
2018-01-08T12:07:27.000Z,3.60
2018-01-08T12:09:55.244Z,3.57
2018-01-08T12:12:23.551Z,3.20
2018-01-08T12:14:51.804Z,3.40
2018-01-08T12:17:20.108Z,3.57
2018-01-08T12:19:48.341Z,3.90
2018-01-08T12:22:16.653Z,3.57
2018-01-08T12:24:45.688Z,3.80
2018-01-08T12:27:13.979Z,3.20
2018-01-08T12:29:42.275Z,4.30
2018-01-08T12:32:10.534Z,3.40
2018-01-08T12:34:38.836Z,4.07
2018-01-08T12:37:07.134Z,4.40
2018-01-08T12:39:36.183Z,3.50
2018-01-08T12:42:04.445Z,3.53
2018-01-08T12:44:32.740Z,3.43
2018-01-08T12:47:01.048Z,3.77
2018-01-08T12:49:30.050Z,3.93
2018-01-08T12:51:59.069Z,3.60
2018-01-08T12:54:27.311Z,3.47
2018-01-08T12:56:56.352Z,3.57
2018-01-08T12:59:24.594Z,3.97
2018-01-08T13:01:53.608Z,3.93
2018-01-08T13:04:21.916Z,4.20
2018-01-08T13:06:50.195Z,4.03
2018-01-08T13:09:18.481Z,3.47
2018-01-08T13:11:46.773Z,3.20
2018-01-08T13:14:15.052Z,3.50
2018-01-08T13:16:43.387Z,3.60
2018-01-08T13:19:11.642Z,3.60
2018-01-08T13:21:39.885Z,3.73
2018-01-08T13:24:08.131Z,3.07
2018-01-08T13:26:36.455Z,3.67
2018-01-08T13:29:05.467Z,2.90
2018-01-08T13:31:34.473Z,3.30
2018-01-08T13:34:02.737Z,4.10
2018-01-08T13:36:31.044Z,3.70
2018-01-08T13:38:59.353Z,3.40
2018-01-08T13:41:27.590Z,3.37
2018-01-08T13:43:55.887Z,4.00
2018-01-08T13:46:24.916Z,4.03
2018-01-08T13:48:53.975Z,3.00
2018-01-08T13:51:22.303Z,3.60
2018-01-08T13:53:51.362Z,3.40
2018-01-08T13:56:19.648Z,3.47
2018-01-08T13:58:47.932Z,3.57
2018-01-08T14:01:16.232Z,3.30
2018-01-08T14:03:45.275Z,2.90
2018-01-08T14:06:13.568Z,3.47
2018-01-08T14:08:41.870Z,3.43
2018-01-08T14:11:10.176Z,3.43
2018-01-08T14:13:38.469Z,2.77
2018-01-08T14:16:06.753Z,3.13
2018-01-08T14:18:34.992Z,3.40
2018-01-08T14:21:04.011Z,3.30
2018-01-08T14:23:32.297Z,3.27
2018-01-08T14:26:00.676Z,3.03
2018-01-08T14:28:29.692Z,3.57
2018-01-08T14:30:57.931Z,2.60
2018-01-08T14:33:26.232Z,3.33
2018-01-08T14:35:54.486Z,2.70
2018-01-08T14:38:22.803Z,2.97
2018-01-08T14:40:51.094Z,3.30
2018-01-08T14:43:19.349Z,3.80
2018-01-08T14:45:47.622Z,3.27
2018-01-08T14:48:15.865Z,3.67
2018-01-08T14:50:44.136Z,3.07
2018-01-08T14:53:12.412Z,3.07
2018-01-08T14:55:40.688Z,3.40
2018-01-08T14:58:09.713Z,3.03
2018-01-08T15:00:37.961Z,3.10
2018-01-08T15:03:06.265Z,3.73
2018-01-08T15:05:34.512Z,3.87
2018-01-08T15:08:03.525Z,3.77
2018-01-08T15:10:31.796Z,3.43
2018-01-08T15:13:00.088Z,3.10
2018-01-08T15:15:28.364Z,3.10
2018-01-08T15:17:56.620Z,2.50
2018-01-08T15:20:24.916Z,3.50
2018-01-08T15:22:53.285Z,2.97
2018-01-08T15:25:21.527Z,2.90
2018-01-08T15:27:50.573Z,3.37
2018-01-08T15:30:18.834Z,2.87
2018-01-08T15:32:47.144Z,2.73
2018-01-08T15:35:15.382Z,2.60
2018-01-08T15:37:43.736Z,3.10
2018-01-08T15:40:11.997Z,3.33
2018-01-08T15:42:40.280Z,2.77
2018-01-08T15:45:08.552Z,3.43
2018-01-08T15:47:36.812Z,3.43
2018-01-08T15:50:05.101Z,2.40
2018-01-08T15:52:33.725Z,3.10
2018-01-08T15:55:02.730Z,2.90
2018-01-08T15:57:31.001Z,2.50
2018-01-08T16:00:00.058Z,3.17
2018-01-08T16:02:28.326Z,2.67
2018-01-08T16:04:56.601Z,3.27
2018-01-08T16:07:24.855Z,2.80
2018-01-08T16:09:53.100Z,3.00
2018-01-08T16:12:22.150Z,2.70
2018-01-08T16:14:50.434Z,3.43
2018-01-08T16:17:18.683Z,3.40
2018-01-08T16:19:46.980Z,3.93
2018-01-08T16:22:15.257Z,3.23
2018-01-08T16:24:43.485Z,3.10
2018-01-08T16:27:12.490Z,3.20
2018-01-08T16:29:40.745Z,3.87
2018-01-08T16:32:09.745Z,3.00
2018-01-08T16:34:38.830Z,3.17
2018-01-08T16:37:07.867Z,3.73
2018-01-08T16:39:36.140Z,3.57
2018-01-08T16:42:04.510Z,3.13
2018-01-08T16:44:32.778Z,3.13
2018-01-08T16:47:01.781Z,3.80
2018-01-08T16:49:30.030Z,3.40
2018-01-08T16:51:59.109Z,3.17
2018-01-08T16:54:27.385Z,2.97
2018-01-08T16:56:55.635Z,3.37
2018-01-08T16:59:23.907Z,2.80
2018-01-08T17:01:52.186Z,3.07
2018-01-08T17:04:20.521Z,3.20
2018-01-08T17:06:49.521Z,3.17
2018-01-08T17:09:17.838Z,3.10
2018-01-08T17:11:46.100Z,3.20
2018-01-08T17:14:14.345Z,3.33
2018-01-08T17:16:43.412Z,3.70
2018-01-08T17:19:11.636Z,3.60
2018-01-08T17:21:39.887Z,4.10
2018-01-08T17:24:08.934Z,3.23
2018-01-08T17:26:37.238Z,3.50
2018-01-08T17:29:05.581Z,3.43
2018-01-08T17:31:33.813Z,4.13
2018-01-08T17:34:02.845Z,3.27
2018-01-08T17:36:31.090Z,4.20
2018-01-08T17:39:00.191Z,3.20
2018-01-08T17:41:29.180Z,3.80
2018-01-08T17:43:57.577Z,4.13
2018-01-08T17:46:25.865Z,3.23
2018-01-08T17:48:54.098Z,3.77
2018-01-08T17:51:22.401Z,3.07
2018-01-08T17:53:50.632Z,2.97
2018-01-08T17:56:18.958Z,3.00
2018-01-08T17:58:47.189Z,4.30
2018-01-08T18:01:15.466Z,4.10
2018-01-08T18:03:43.724Z,3.63
2018-01-08T18:06:11.975Z,3.57
2018-01-08T18:08:40.228Z,3.30
2018-01-08T18:11:08.486Z,3.03
2018-01-08T18:13:37.518Z,3.20
2018-01-08T18:16:05.765Z,3.13
2018-01-08T18:18:34.855Z,2.83
2018-01-08T18:21:03.090Z,3.43
2018-01-08T18:23:31.336Z,2.90
2018-01-08T18:25:59.668Z,3.10
2018-01-08T18:28:27.943Z,4.43
2018-01-08T18:30:56.249Z,3.70
2018-01-08T18:33:25.302Z,3.60
2018-01-08T18:35:53.574Z,2.93
2018-01-08T18:38:21.811Z,3.77
2018-01-08T18:40:50.041Z,3.33
2018-01-08T18:43:18.341Z,4.00
2018-01-08T18:45:47.360Z,3.07
2018-01-08T18:48:15.632Z,3.27
2018-01-08T18:50:44.695Z,3.77
2018-01-08T18:53:12.970Z,3.27
2018-01-08T18:55:41.268Z,3.07
2018-01-08T18:58:09.540Z,3.27
2018-01-08T19:00:37.926Z,3.60
2018-01-08T19:03:06.224Z,3.30
2018-01-08T19:05:34.504Z,3.70
2018-01-08T19:08:02.771Z,3.17
2018-01-08T19:10:31.788Z,4.10
2018-01-08T19:13:00.063Z,3.80
2018-01-08T19:15:28.308Z,2.90
2018-01-08T19:17:57.370Z,3.27
2018-01-08T19:20:26.476Z,3.23
2018-01-08T19:22:54.744Z,3.23
2018-01-08T19:25:23.280Z,2.73
2018-01-08T19:27:52.322Z,3.47
2018-01-08T19:30:20.594Z,3.87
2018-01-08T19:32:48.834Z,3.10
2018-01-08T19:35:17.131Z,3.27
2018-01-08T19:37:45.459Z,3.10
2018-01-08T19:40:14.488Z,3.40
2018-01-08T19:42:42.724Z,3.30
2018-01-08T19:45:11.761Z,3.37
2018-01-08T19:47:40.012Z,3.30
2018-01-08T19:50:09.072Z,3.40
2018-01-08T19:52:37.328Z,3.00
2018-01-08T19:55:05.630Z,3.17
2018-01-08T19:57:33.953Z,2.83
2018-01-08T20:00:02.990Z,3.93
2018-01-08T20:02:31.311Z,2.43
2018-01-08T20:05:00.340Z,3.20
2018-01-08T20:07:28.626Z,2.77
2018-01-08T20:09:56.944Z,2.83
2018-01-08T20:12:25.208Z,2.93
2018-01-08T20:14:53.874Z,3.77
2018-01-08T20:17:22.105Z,2.97
2018-01-08T20:19:51.114Z,3.30
2018-01-08T20:22:19.370Z,3.70
2018-01-08T20:24:48.413Z,3.60
2018-01-08T20:27:16.757Z,3.23
2018-01-08T20:29:45.019Z,3.53
2018-01-08T20:32:14.068Z,3.67
2018-01-08T20:34:42.396Z,3.33
2018-01-08T20:37:11.465Z,3.20
2018-01-08T20:39:39.725Z,3.17
2018-01-08T20:42:08.057Z,4.03
2018-01-08T20:44:37.053Z,3.30
2018-01-08T20:47:05.341Z,3.40
2018-01-08T20:49:33.642Z,3.33
2018-01-08T20:52:01.946Z,3.50
2018-01-08T20:54:30.220Z,3.47
2018-01-08T20:56:58.537Z,3.70
2018-01-08T20:59:27.570Z,3.67
2018-01-08T21:01:55.842Z,3.47
2018-01-08T21:04:24.152Z,4.10
2018-01-08T21:06:52.436Z,4.03
2018-01-08T21:09:20.742Z,3.50
2018-01-08T21:11:49.781Z,3.60
2018-01-08T21:14:18.008Z,4.33
2018-01-08T21:16:47.033Z,3.67
2018-01-08T21:19:15.272Z,3.87
2018-01-08T21:21:44.310Z,4.23
2018-01-08T21:24:12.596Z,3.73
2018-01-08T21:26:41.569Z,3.13
2018-01-08T21:29:09.859Z,3.60
2018-01-08T21:31:38.166Z,3.67
2018-01-08T21:34:06.472Z,4.07
2018-01-08T21:36:35.547Z,3.23
2018-01-08T21:39:03.883Z,4.33
2018-01-08T21:41:32.188Z,2.87
2018-01-08T21:44:00.501Z,3.20
2018-01-08T21:46:29.528Z,3.03
2018-01-08T21:48:57.798Z,4.07
2018-01-08T21:51:26.113Z,3.93
2018-01-08T21:53:54.345Z,3.53
2018-01-08T21:56:22.588Z,3.20
2018-01-08T21:58:51.623Z,3.03
2018-01-08T22:01:19.865Z,3.70
2018-01-08T22:03:48.165Z,3.60
2018-01-08T22:06:17.156Z,3.00
2018-01-08T22:08:45.460Z,3.10
2018-01-08T22:11:13.745Z,3.90
2018-01-08T22:13:41.986Z,2.80
2018-01-08T22:16:11.061Z,2.73
2018-01-08T22:18:39.287Z,3.13
2018-01-08T22:21:07.564Z,3.27
2018-01-08T22:23:35.852Z,3.43
2018-01-08T22:26:04.080Z,3.43
2018-01-08T22:28:33.136Z,4.13
2018-01-08T22:31:01.427Z,4.37
2018-01-08T22:33:29.743Z,3.50
2018-01-08T22:35:58.004Z,3.60
2018-01-08T22:38:27.050Z,3.33
2018-01-08T22:40:55.399Z,3.27
2018-01-08T22:43:23.678Z,2.73
2018-01-08T22:45:51.957Z,2.90
2018-01-08T22:48:20.251Z,3.23
2018-01-08T22:50:48.527Z,3.50
2018-01-08T22:53:16.811Z,4.60
2018-01-08T22:55:45.051Z,3.60
2018-01-08T22:58:14.104Z,3.67
2018-01-08T23:00:42.381Z,3.90
2018-01-08T23:03:10.652Z,3.10
2018-01-08T23:05:38.896Z,3.00
2018-01-08T23:08:07.128Z,3.43
2018-01-08T23:10:35.401Z,3.33
2018-01-08T23:13:03.665Z,3.27
2018-01-08T23:15:31.960Z,3.40
2018-01-08T23:18:00.193Z,3.53
2018-01-08T23:20:28.483Z,4.40
2018-01-08T23:22:56.756Z,3.57
2018-01-08T23:25:25.004Z,3.50
2018-01-08T23:27:53.237Z,3.33
2018-01-08T23:32:54.292Z,3.17
2018-01-08T23:35:24.032Z,4.40
2018-01-08T23:37:53.037Z,3.30
2018-01-08T23:40:21.301Z,4.43
2018-01-08T23:42:50.427Z,3.37
2018-01-08T23:45:18.704Z,3.40
2018-01-08T23:47:47.005Z,3.97
2018-01-08T23:50:15.322Z,3.90
2018-01-08T23:52:43.563Z,4.10
2018-01-08T23:55:11.851Z,3.17
2018-01-08T23:57:40.113Z,3.90
